Time;durP1;ratioP1;P1;durP2;ratioP2;P2;SDS_P1;SDS_P2;PMS_P1;PMS_P2;Temp;Humidity;BMP_temperature;BMP_pressure;BME280_temperature;BME280_humidity;BME280_pressure;Samples;Min_cycle;Max_cycle;Signal;HPM_P1;HPM_P2
2022/03/07 00:00:37;;;;;;;30.17;18.70;;;;;;;;;;10475767;28;20398;-83
2022/03/07 00:05:38;;;;;;;29.17;19.27;;;;;;;;;;10469356;28;20732;-82
2022/03/07 00:10:40;;;;;;;26.50;18.33;;;;;;;;;;10475688;28;20493;-84
2022/03/07 00:15:44;;;;;;;30.43;19.60;;;;;;;;;;10477474;28;20438;-83
2022/03/07 00:20:46;;;;;;;27.63;19.00;;;;;;;;;;10480952;28;20414;-82
2022/03/07 00:25:48;;;;;;;30.80;19.90;;;;;;;;;;10495068;28;20402;-83
2022/03/07 00:30:51;;;;;;;35.33;20.60;;;;;;;;;;10519937;28;20406;-83
2022/03/07 00:35:53;;;;;;;32.65;20.67;;;;;;;;;;10484226;28;20927;-83
2022/03/07 00:40:55;;;;;;;33.00;20.40;;;;;;;;;;10483722;28;20496;-84
2022/03/07 00:45:59;;;;;;;33.17;21.17;;;;;;;;;;10483474;28;20408;-84
2022/03/07 00:51:01;;;;;;;31.63;19.52;;;;;;;;;;10483232;28;20410;-83
2022/03/07 00:56:03;;;;;;;34.55;20.27;;;;;;;;;;10482639;28;20426;-83
2022/03/07 01:01:06;;;;;;;30.27;19.88;;;;;;;;;;10483872;28;20420;-82
2022/03/07 01:06:08;;;;;;;32.15;20.80;;;;;;;;;;10483002;28;20408;-84
2022/03/07 01:11:10;;;;;;;32.78;20.02;;;;;;;;;;10481990;28;20456;-84
2022/03/07 01:16:14;;;;;;;31.75;19.05;;;;;;;;;;10482202;28;20426;-85
2022/03/07 01:21:16;;;;;;;28.00;18.20;;;;;;;;;;10447024;28;20400;-84
2022/03/07 01:26:17;;;;;;;29.10;17.97;;;;;;;;;;10462869;28;20428;-83
2022/03/07 01:31:21;;;;;;;27.67;17.53;;;;;;;;;;10480598;28;20406;-82
2022/03/07 01:36:23;;;;;;;28.50;17.58;;;;;;;;;;10480702;28;20426;-82
2022/03/07 01:41:24;;;;;;;27.45;18.05;;;;;;;;;;10480986;28;20414;-84
2022/03/07 01:46:28;;;;;;;28.63;18.53;;;;;;;;;;10481293;28;20398;-84
2022/03/07 01:51:30;;;;;;;31.40;19.48;;;;;;;;;;10477954;28;20975;-84
2022/03/07 01:56:32;;;;;;;31.52;19.10;;;;;;;;;;10462683;28;21167;-84
2022/03/07 02:01:35;;;;;;;30.90;19.20;;;;;;;;;;10480748;28;20404;-84
2022/03/07 02:06:39;;;;;;;29.90;18.50;;;;;;;;;;10480445;28;20404;-85
2022/03/07 02:11:41;;;;;;;28.38;17.83;;;;;;;;;;10480017;28;20441;-84
2022/03/07 02:16:44;;;;;;;27.70;17.03;;;;;;;;;;10480566;28;20479;-85
2022/03/07 02:21:48;;;;;;;23.67;16.53;;;;;;;;;;10451528;28;20404;-84
2022/03/07 02:26:59;;;;;;;30.30;16.93;;;;;;;;;;10475159;28;20460;-85
2022/03/07 02:32:02;;;;;;;26.48;16.05;;;;;;;;;;10479461;28;20400;-84
2022/03/07 02:37:04;;;;;;;24.60;15.52;;;;;;;;;;10478418;28;20418;-84
2022/03/07 02:42:08;;;;;;;24.58;14.93;;;;;;;;;;10478929;28;20416;-84
2022/03/07 02:47:13;;;;;;;24.20;15.10;;;;;;;;;;10479010;28;20409;-83
2022/03/07 02:52:15;;;;;;;23.42;15.20;;;;;;;;;;10478550;28;20401;-83
2022/03/07 02:57:18;;;;;;;21.92;14.43;;;;;;;;;;10468067;28;20509;-84
2022/03/07 03:02:21;;;;;;;21.40;14.47;;;;;;;;;;10467566;28;20480;-84
2022/03/07 03:07:23;;;;;;;20.63;14.23;;;;;;;;;;10474036;28;20413;-83
2022/03/07 03:12:26;;;;;;;21.73;13.90;;;;;;;;;;10481617;28;20815;-83
2022/03/07 03:17:28;;;;;;;25.20;14.30;;;;;;;;;;10471821;28;20921;-83
2022/03/07 03:22:31;;;;;;;21.58;14.45;;;;;;;;;;10500562;28;20382;-85
2022/03/07 03:27:34;;;;;;;22.15;14.43;;;;;;;;;;10479596;28;20426;-83
2022/03/07 03:32:36;;;;;;;23.07;14.77;;;;;;;;;;10458034;28;20416;-84
2022/03/07 03:37:39;;;;;;;23.35;14.60;;;;;;;;;;10479033;28;20912;-84
2022/03/07 03:42:42;;;;;;;21.35;14.07;;;;;;;;;;10477200;28;20836;-85
2022/03/07 03:47:45;;;;;;;20.13;13.98;;;;;;;;;;10457553;28;20479;-85
2022/03/07 03:52:47;;;;;;;22.10;15.15;;;;;;;;;;10478132;28;20413;-84
2022/03/07 03:57:50;;;;;;;20.63;14.60;;;;;;;;;;10473308;28;20902;-84
2022/03/07 04:02:52;;;;;;;22.23;14.30;;;;;;;;;;10459814;28;20485;-84
2022/03/07 04:07:54;;;;;;;23.75;14.77;;;;;;;;;;10469358;28;20392;-84
2022/03/07 04:12:57;;;;;;;21.58;14.45;;;;;;;;;;10477199;28;20416;-84
2022/03/07 04:17:59;;;;;;;24.33;14.63;;;;;;;;;;10472400;28;20424;-84
2022/03/07 04:23:00;;;;;;;21.47;14.43;;;;;;;;;;10475600;28;20446;-84
2022/03/07 04:28:05;;;;;;;25.55;15.32;;;;;;;;;;10474662;28;20586;-84
2022/03/07 04:33:07;;;;;;;24.63;15.70;;;;;;;;;;10475579;28;20804;-84
2022/03/07 04:38:09;;;;;;;22.47;15.10;;;;;;;;;;10476088;28;20498;-84
2022/03/07 04:43:12;;;;;;;25.00;15.83;;;;;;;;;;10471310;28;20488;-83
2022/03/07 04:48:15;;;;;;;23.90;15.90;;;;;;;;;;10477040;28;20405;-84
2022/03/07 04:53:17;;;;;;;25.08;15.90;;;;;;;;;;10476464;28;20406;-84
2022/03/07 04:58:20;;;;;;;25.92;15.73;;;;;;;;;;10475916;28;20406;-84
2022/03/07 05:03:22;;;;;;;26.58;16.23;;;;;;;;;;10482108;28;20485;-84
2022/03/07 05:08:24;;;;;;;26.90;15.60;;;;;;;;;;10478649;28;20573;-82
2022/03/07 05:13:27;;;;;;;26.42;16.30;;;;;;;;;;10481720;28;20492;-84
2022/03/07 05:18:29;;;;;;;24.65;16.38;;;;;;;;;;10479971;28;20485;-85
2022/03/07 05:23:31;;;;;;;25.27;16.00;;;;;;;;;;10480943;28;20402;-84
2022/03/07 05:28:34;;;;;;;25.35;15.20;;;;;;;;;;10481850;28;20406;-85
2022/03/07 05:33:36;;;;;;;25.35;15.23;;;;;;;;;;10480952;28;20520;-85
2022/03/07 05:38:38;;;;;;;23.67;14.70;;;;;;;;;;10481287;28;20514;-85
2022/03/07 05:43:41;;;;;;;23.88;15.38;;;;;;;;;;10480737;28;20402;-85
2022/03/07 05:48:43;;;;;;;24.73;15.07;;;;;;;;;;10478781;28;20454;-85
2022/03/07 05:53:44;;;;;;;25.25;16.17;;;;;;;;;;10472996;28;20457;-84
2022/03/07 05:58:48;;;;;;;26.73;16.25;;;;;;;;;;10478477;28;20889;-85
2022/03/07 06:03:49;;;;;;;31.73;17.27;;;;;;;;;;10481465;28;21012;-85
2022/03/07 06:08:51;;;;;;;29.55;17.88;;;;;;;;;;10481344;28;20429;-85
2022/03/07 06:13:55;;;;;;;27.65;16.48;;;;;;;;;;10504088;28;20491;-85
2022/03/07 06:18:56;;;;;;;23.67;16.47;;;;;;;;;;10472573;28;20806;-85
2022/03/07 06:23:58;;;;;;;25.23;16.52;;;;;;;;;;10470445;28;20432;-85
2022/03/07 06:29:02;;;;;;;29.98;17.05;;;;;;;;;;10472174;28;20406;-85
2022/03/07 06:34:04;;;;;;;27.85;17.05;;;;;;;;;;10467541;28;20433;-85
2022/03/07 06:39:05;;;;;;;27.23;16.23;;;;;;;;;;10471951;28;20402;-85
2022/03/07 06:44:09;;;;;;;25.90;15.63;;;;;;;;;;10467723;28;20406;-86
2022/03/07 06:49:10;;;;;;;25.17;15.90;;;;;;;;;;10466703;28;20480;-86
2022/03/07 06:54:12;;;;;;;27.33;16.55;;;;;;;;;;10469081;28;20458;-85
2022/03/07 06:59:16;;;;;;;25.08;15.45;;;;;;;;;;10468183;28;20401;-84
2022/03/07 07:04:17;;;;;;;27.85;16.88;;;;;;;;;;10462292;28;20978;-87
2022/03/07 07:09:19;;;;;;;28.83;18.02;;;;;;;;;;10465996;28;20431;-85
2022/03/07 07:14:22;;;;;;;29.00;17.10;;;;;;;;;;10471613;28;20717;-84
2022/03/07 07:19:24;;;;;;;29.83;16.98;;;;;;;;;;10475596;28;20882;-85
2022/03/07 07:24:26;;;;;;;28.17;17.27;;;;;;;;;;10476453;28;20410;-84
2022/03/07 07:29:29;;;;;;;31.65;16.77;;;;;;;;;;10476879;28;20405;-85
2022/03/07 07:34:31;;;;;;;31.02;17.02;;;;;;;;;;10456371;28;20418;-84
2022/03/07 07:39:33;;;;;;;30.80;15.55;;;;;;;;;;10474194;28;20398;-85
2022/03/07 07:44:36;;;;;;;27.92;15.55;;;;;;;;;;10476215;28;20832;-86
2022/03/07 07:49:38;;;;;;;29.63;16.13;;;;;;;;;;10475039;28;20740;-85
2022/03/07 07:54:40;;;;;;;25.92;15.20;;;;;;;;;;10472835;28;20517;-85
2022/03/07 07:59:44;;;;;;;22.95;15.15;;;;;;;;;;10471528;28;20433;-85
2022/03/07 08:04:45;;;;;;;22.73;15.00;;;;;;;;;;10471117;28;20476;-85
2022/03/07 08:09:47;;;;;;;27.27;15.20;;;;;;;;;;10475001;28;20412;-85
2022/03/07 08:14:51;;;;;;;20.45;14.20;;;;;;;;;;10474422;28;20432;-85
2022/03/07 08:19:52;;;;;;;22.77;13.85;;;;;;;;;;10475042;28;20413;-85
2022/03/07 08:24:54;;;;;;;22.87;15.07;;;;;;;;;;10464007;28;20781;-85
2022/03/07 08:29:57;;;;;;;24.37;14.53;;;;;;;;;;10474921;28;20586;-85
2022/03/07 08:34:59;;;;;;;21.65;14.65;;;;;;;;;;10477087;28;20505;-85
2022/03/07 08:40:01;;;;;;;21.00;14.50;;;;;;;;;;10482030;28;20969;-85
2022/03/07 08:45:06;;;;;;;22.70;14.98;;;;;;;;;;10482615;28;20480;-85
2022/03/07 08:50:10;;;;;;;22.73;15.73;;;;;;;;;;10482477;28;20394;-85
2022/03/07 08:55:12;;;;;;;23.08;14.88;;;;;;;;;;10482306;28;20426;-85
2022/03/07 09:00:16;;;;;;;23.23;15.00;;;;;;;;;;10483527;28;20489;-85
2022/03/07 09:05:18;;;;;;;22.37;14.60;;;;;;;;;;10482068;28;20440;-85
2022/03/07 09:10:20;;;;;;;21.63;14.97;;;;;;;;;;10485015;28;20485;-86
2022/03/07 09:15:23;;;;;;;20.90;14.57;;;;;;;;;;10496204;28;20441;-85
2022/03/07 09:20:25;;;;;;;24.00;15.02;;;;;;;;;;10513077;28;20402;-85
2022/03/07 09:25:26;;;;;;;22.40;15.40;;;;;;;;;;10480290;28;20512;-85
2022/03/07 09:30:30;;;;;;;21.10;14.32;;;;;;;;;;10461456;28;20427;-85
2022/03/07 09:35:32;;;;;;;21.70;14.90;;;;;;;;;;10479596;28;20425;-85
2022/03/07 09:40:34;;;;;;;21.80;14.65;;;;;;;;;;10480315;28;21217;-84
2022/03/07 09:45:38;;;;;;;20.27;14.68;;;;;;;;;;10480073;28;20484;-85
2022/03/07 09:50:40;;;;;;;19.77;14.20;;;;;;;;;;10479648;28;20556;-85
2022/03/07 09:55:42;;;;;;;21.15;14.68;;;;;;;;;;10479599;28;20759;-86
2022/03/07 10:00:45;;;;;;;22.83;14.98;;;;;;;;;;10478978;28;20913;-85
2022/03/07 10:05:49;;;;;;;22.15;14.75;;;;;;;;;;10479044;28;20408;-85
2022/03/07 10:10:52;;;;;;;22.47;14.90;;;;;;;;;;10478215;28;20442;-85
2022/03/07 10:16:01;;;;;;;22.95;15.30;;;;;;;;;;10478268;28;20422;-85
2022/03/07 10:21:04;;;;;;;21.63;15.27;;;;;;;;;;10467022;28;20429;-86
2022/03/07 10:26:07;;;;;;;21.52;15.55;;;;;;;;;;10473701;28;20408;-85
2022/03/07 10:31:17;;;;;;;22.25;15.38;;;;;;;;;;10476986;28;20390;-85
2022/03/07 10:36:19;;;;;;;22.73;15.88;;;;;;;;;;10473566;28;20501;-85
2022/03/07 10:41:33;;;;;;;23.17;14.95;;;;;;;;;;10475097;28;20482;-86
2022/03/07 10:46:38;;;;;;;21.55;14.98;;;;;;;;;;10457965;28;20410;-85
2022/03/07 10:51:51;;;;;;;26.70;16.27;;;;;;;;;;10476821;28;20406;-84
2022/03/07 10:56:55;;;;;;;22.17;15.75;;;;;;;;;;10474088;28;20432;-85
2022/03/07 11:02:06;;;;;;;22.38;15.35;;;;;;;;;;10470173;28;20440;-83
2022/03/07 11:07:09;;;;;;;22.90;15.90;;;;;;;;;;10474869;28;20793;-85
2022/03/07 11:12:13;;;;;;;22.57;15.40;;;;;;;;;;10475624;28;20890;-85
2022/03/07 11:17:19;;;;;;;22.42;15.40;;;;;;;;;;10475896;28;20497;-84
2022/03/07 11:22:21;;;;;;;24.85;16.38;;;;;;;;;;10474475;28;20457;-85
2022/03/07 11:27:23;;;;;;;22.85;15.90;;;;;;;;;;10469015;28;20441;-85
2022/03/07 11:32:26;;;;;;;21.13;15.32;;;;;;;;;;10476595;28;20509;-85
2022/03/07 11:37:30;;;;;;;22.90;15.07;;;;;;;;;;10473333;28;20468;-86
2022/03/07 11:42:37;;;;;;;22.98;15.60;;;;;;;;;;10474603;28;20806;-85
2022/03/07 11:47:41;;;;;;;21.50;15.10;;;;;;;;;;10474442;28;21352;-85
2022/03/07 11:52:43;;;;;;;20.93;14.73;;;;;;;;;;10475804;28;20494;-85
2022/03/07 11:57:47;;;;;;;21.45;15.13;;;;;;;;;;10473417;28;21040;-85
2022/03/07 12:02:52;;;;;;;20.80;14.50;;;;;;;;;;10473242;28;20482;-85
2022/03/07 12:08:07;;;;;;;22.45;15.93;;;;;;;;;;10462722;28;20510;-86
2022/03/07 12:13:11;;;;;;;20.73;15.15;;;;;;;;;;10482585;28;20903;-87
2022/03/07 12:18:15;;;;;;;21.40;15.90;;;;;;;;;;10473386;28;20976;-86
2022/03/07 12:23:18;;;;;;;21.58;15.45;;;;;;;;;;10477106;28;20500;-85
2022/03/07 12:28:19;;;;;;;21.98;15.98;;;;;;;;;;10479969;28;20437;-86
2022/03/07 12:33:23;;;;;;;23.23;15.95;;;;;;;;;;10474738;28;21067;-86
2022/03/07 12:38:25;;;;;;;23.33;15.03;;;;;;;;;;10477100;28;20816;-85
2022/03/07 12:43:28;;;;;;;22.00;15.20;;;;;;;;;;10474699;28;20498;-87
2022/03/07 12:48:39;;;;;;;23.27;16.42;;;;;;;;;;10469043;28;20402;-85
2022/03/07 12:53:49;;;;;;;22.48;15.75;;;;;;;;;;10468502;28;20431;-85
2022/03/07 12:58:54;;;;;;;23.75;16.63;;;;;;;;;;10468922;28;20480;-85
2022/03/07 13:03:59;;;;;;;22.40;16.23;;;;;;;;;;10488444;28;20469;-87
2022/03/07 13:09:01;;;;;;;20.80;15.38;;;;;;;;;;10512814;28;20492;-85
2022/03/07 13:14:04;;;;;;;22.25;15.25;;;;;;;;;;10474668;28;20410;-86
2022/03/07 13:19:11;;;;;;;23.50;15.30;;;;;;;;;;10476801;28;20935;-84
2022/03/07 13:24:17;;;;;;;24.33;16.53;;;;;;;;;;10478054;28;20773;-85
2022/03/07 13:29:20;;;;;;;20.65;15.77;;;;;;;;;;10472348;28;20445;-88
2022/03/07 13:34:23;;;;;;;21.67;16.27;;;;;;;;;;10477353;28;20408;-86
2022/03/07 13:39:28;;;;;;;21.37;15.80;;;;;;;;;;10478180;28;20868;-84
2022/03/07 13:44:31;;;;;;;23.70;16.90;;;;;;;;;;10477294;28;20405;-87
2022/03/07 13:49:46;;;;;;;21.52;16.35;;;;;;;;;;10470848;28;20394;-87
2022/03/07 13:54:49;;;;;;;21.65;16.67;;;;;;;;;;10468408;28;20418;-86
2022/03/07 13:59:55;;;;;;;21.63;16.17;;;;;;;;;;10469342;28;20506;-87
2022/03/07 14:05:02;;;;;;;24.83;18.15;;;;;;;;;;10471135;28;20520;-87
2022/03/07 14:10:08;;;;;;;20.73;16.13;;;;;;;;;;10471940;28;20411;-87
2022/03/07 14:15:12;;;;;;;22.73;16.40;;;;;;;;;;10470946;28;20863;-89
2022/03/07 14:20:15;;;;;;;23.50;16.77;;;;;;;;;;10466668;28;20928;-87
2022/03/07 14:25:17;;;;;;;23.10;16.67;;;;;;;;;;10468203;28;20480;-87
2022/03/07 14:30:19;;;;;;;22.73;17.20;;;;;;;;;;10468614;28;20401;-89
2022/03/07 14:35:24;;;;;;;20.55;16.58;;;;;;;;;;10467722;28;20430;-89
2022/03/07 14:40:26;;;;;;;21.53;16.63;;;;;;;;;;10469090;28;20410;-88
2022/03/07 14:45:28;;;;;;;22.27;17.38;;;;;;;;;;10474546;28;20502;-88
2022/03/07 14:50:31;;;;;;;22.10;17.75;;;;;;;;;;10476690;28;20501;-89
2022/03/07 14:55:33;;;;;;;21.40;17.00;;;;;;;;;;10474732;28;20408;-89
2022/03/07 15:00:35;;;;;;;23.17;19.10;;;;;;;;;;10476886;28;20750;-89
2022/03/07 15:05:38;;;;;;;22.47;16.87;;;;;;;;;;10475298;28;20433;-88
2022/03/07 15:10:41;;;;;;;24.35;16.98;;;;;;;;;;10474701;28;20489;-89
2022/03/07 15:15:43;;;;;;;22.40;17.00;;;;;;;;;;10469290;28;20417;-89
2022/03/07 15:20:46;;;;;;;21.88;17.08;;;;;;;;;;10468835;28;20488;-88
2022/03/07 15:25:51;;;;;;;53.95;38.92;;;;;;;;;;10468938;28;20452;-88
2022/03/07 15:30:53;;;;;;;21.42;16.50;;;;;;;;;;10458882;28;20406;-88
2022/03/07 15:35:57;;;;;;;22.40;16.63;;;;;;;;;;10452886;28;21175;-88
2022/03/07 15:40:59;;;;;;;21.40;15.83;;;;;;;;;;10458519;28;20501;-86
2022/03/07 15:46:03;;;;;;;19.98;16.02;;;;;;;;;;10458922;28;20496;-85
2022/03/07 15:51:06;;;;;;;20.97;15.80;;;;;;;;;;10455661;28;20513;-87
2022/03/07 15:56:11;;;;;;;24.13;17.60;;;;;;;;;;10455415;28;21399;-87
2022/03/07 16:01:13;;;;;;;24.63;18.77;;;;;;;;;;10448341;28;20909;-87
2022/03/07 16:06:16;;;;;;;27.25;17.80;;;;;;;;;;10452714;28;20480;-86
2022/03/07 16:11:18;;;;;;;25.35;18.02;;;;;;;;;;10463915;28;20478;-87
2022/03/07 16:16:21;;;;;;;26.58;18.67;;;;;;;;;;10465612;28;20936;-86
2022/03/07 16:21:25;;;;;;;25.52;18.10;;;;;;;;;;10470110;28;20401;-86
2022/03/07 16:26:29;;;;;;;24.70;17.77;;;;;;;;;;10468483;28;20808;-86
2022/03/07 16:31:31;;;;;;;25.10;18.58;;;;;;;;;;10469885;28;20490;-86
2022/03/07 16:36:34;;;;;;;25.90;17.98;;;;;;;;;;10466712;28;20446;-87
2022/03/07 16:41:36;;;;;;;26.92;18.60;;;;;;;;;;10468866;28;20850;-86
2022/03/07 16:46:38;;;;;;;25.63;18.33;;;;;;;;;;10467635;28;20410;-87
2022/03/07 16:51:43;;;;;;;24.90;17.77;;;;;;;;;;10461528;28;20443;-86
2022/03/07 16:56:45;;;;;;;27.45;17.60;;;;;;;;;;10466982;28;20552;-86
2022/03/07 17:01:46;;;;;;;24.25;17.33;;;;;;;;;;10471064;28;20414;-86
2022/03/07 17:06:51;;;;;;;26.33;17.90;;;;;;;;;;10472436;28;20411;-86
2022/03/07 17:11:53;;;;;;;27.10;18.00;;;;;;;;;;10470930;28;20729;-86
2022/03/07 17:16:55;;;;;;;27.63;18.67;;;;;;;;;;10490099;28;20456;-85
2022/03/07 17:21:59;;;;;;;32.20;20.50;;;;;;;;;;10476176;28;20472;-84
2022/03/07 17:27:01;;;;;;;38.85;24.45;;;;;;;;;;10461906;28;20411;-84
2022/03/07 17:32:04;;;;;;;35.50;23.33;;;;;;;;;;10467918;28;21150;-84
2022/03/07 17:37:08;;;;;;;29.23;20.80;;;;;;;;;;10458468;28;20421;-83
2022/03/07 17:42:10;;;;;;;33.20;21.33;;;;;;;;;;10469872;28;20398;-83
2022/03/07 17:47:12;;;;;;;36.47;23.77;;;;;;;;;;10464827;28;20398;-84
2022/03/07 17:52:15;;;;;;;47.78;31.73;;;;;;;;;;10462481;28;20408;-79
2022/03/07 17:57:17;;;;;;;54.63;34.37;;;;;;;;;;10470540;28;20414;-80
2022/03/07 18:02:19;;;;;;;46.27;30.33;;;;;;;;;;10476238;28;20424;-82
2022/03/07 18:07:22;;;;;;;36.37;24.27;;;;;;;;;;10467270;28;20505;-83
2022/03/07 18:12:24;;;;;;;39.33;25.02;;;;;;;;;;10470775;28;20505;-82
2022/03/07 18:17:26;;;;;;;32.78;22.75;;;;;;;;;;10473233;28;20425;-81
2022/03/07 18:22:30;;;;;;;32.85;23.45;;;;;;;;;;10470662;28;20497;-82
2022/03/07 18:27:31;;;;;;;34.73;23.30;;;;;;;;;;10469089;28;20420;-81
2022/03/07 18:32:33;;;;;;;37.63;25.53;;;;;;;;;;10470929;28;21355;-82
2022/03/07 18:37:37;;;;;;;37.87;25.13;;;;;;;;;;10472600;28;20965;-81
2022/03/07 18:42:40;;;;;;;35.63;24.80;;;;;;;;;;10470470;28;20472;-81
2022/03/07 18:47:43;;;;;;;37.07;25.67;;;;;;;;;;10472046;28;20414;-81
2022/03/07 18:52:49;;;;;;;39.83;28.02;;;;;;;;;;10471406;28;20933;-82
2022/03/07 18:57:51;;;;;;;53.90;40.40;;;;;;;;;;10468790;28;20981;-82
2022/03/07 19:02:54;;;;;;;38.28;26.17;;;;;;;;;;10462737;28;20499;-83
2022/03/07 19:07:58;;;;;;;38.38;27.10;;;;;;;;;;10459363;28;21281;-84
2022/03/07 19:13:00;;;;;;;41.07;27.20;;;;;;;;;;10467910;28;20424;-83
2022/03/07 19:18:02;;;;;;;44.10;28.53;;;;;;;;;;10468665;28;20538;-84
2022/03/07 19:23:05;;;;;;;45.47;30.23;;;;;;;;;;10468733;28;20516;-83
2022/03/07 19:28:07;;;;;;;43.78;29.65;;;;;;;;;;10469938;28;21816;-83
2022/03/07 19:33:08;;;;;;;42.65;27.73;;;;;;;;;;10465289;28;20801;-84
